CYGE

Details ICAO CYGE (YGE)
Name Golden Airport
Region Canada
Timezone America/Edmonton (UTC-6.0)
Plans Departing 4
Arriving 12
Stats Elevation 2,576 ft / 785 m (AMSL)
Location 51.299200° -116.982000°
Runways 1
Magnetic Variation 15.105° E
Sunrise 2018-10-18 14:17:57 UTC / 2018-10-18 08:17:57 Local
Sunset 2018-10-19 00:50:25 UTC / 2018-10-18 18:50:25 Local
Advertisement - Login to hide

Runways

ID Width Length Bearing (true/mag) Surface Threshold Overrun Markings Lighting
14 75 ft / 23 m 4,500 ft / 1,372 m 157.97° / 142.87° ASPHALT 0 ft / 0 m 0 ft / 0 m VISUAL
32 75 ft / 23 m 4,500 ft / 1,372 m 337.98° / 322.87° ASPHALT 0 ft / 0 m 0 ft / 0 m VISUAL

Map

Weather


0- 5 10 15 20 25 30 35+ Temperature / °C

Clouds and Precipitation
Forecast for 2018-10-18 12:00 UTC. Updated 3 hours ago

Ground ~20,000 ft ~40,000 ft Winds

METAR

CYGE 181200Z 00000KT 20SM FEW002 FEW055 M03/M04 A3023 RMK ST1SC1 VIS E 1 FROIN SLP268

TAF

Not found

Frequencies

Unicom 122.80 MHz CTAF
Approach 132.35 MHz Vancouver Center
Recorded 122.37 MHz Pacific Radio
Warning: Do not use this data for real-world aviation or navigation. No guarantee of current accuracy is given.